Time;durP1;ratioP1;P1;durP2;ratioP2;P2;SDS_P1;SDS_P2;PMS_P1;PMS_P2;Temp;Humidity;BMP_temperature;BMP_pressure;BME280_temperature;BME280_humidity;BME280_pressure;Samples;Min_cycle;Max_cycle;Signal;HPM_P1;HPM_P2
2021/07/07 00:00:26;;;;;;;0.47;0.30;;;;;;;16.97;83.22;100338.03;4992354;28;20165;-74
2021/07/07 00:02:51;;;;;;;0.37;0.30;;;;;;;16.95;83.10;100323.78;4992094;28;20637;-74
2021/07/07 00:05:18;;;;;;;0.27;0.27;;;;;;;16.95;83.08;100335.63;4991947;28;20185;-73
2021/07/07 00:07:44;;;;;;;0.90;0.90;;;;;;;16.93;83.11;100326.91;4991897;28;20197;-74
2021/07/07 00:10:13;;;;;;;0.33;0.30;;;;;;;16.93;83.47;100331.63;4991862;28;20231;-74
2021/07/07 00:12:39;;;;;;;0.43;0.43;;;;;;;16.91;83.42;100339.44;4991389;28;20650;-73
2021/07/07 00:15:08;;;;;;;0.30;0.30;;;;;;;16.90;83.54;100344.16;4990198;28;20173;-74
2021/07/07 00:17:34;;;;;;;0.40;0.40;;;;;;;16.89;84.21;100350.03;4991442;28;20223;-73
2021/07/07 00:19:59;;;;;;;0.50;0.50;;;;;;;16.88;83.50;100346.47;4991481;28;20177;-74
2021/07/07 00:22:25;;;;;;;0.40;0.40;;;;;;;16.90;83.62;100349.66;4991519;28;20198;-74
2021/07/07 00:24:51;;;;;;;2.83;0.90;;;;;;;16.90;83.67;100349.66;4991286;28;20706;-74
2021/07/07 00:27:16;;;;;;;0.93;0.60;;;;;;;16.88;84.02;100349.22;4991826;28;20174;-74
2021/07/07 00:29:43;;;;;;;0.60;0.60;;;;;;;16.91;83.87;100358.75;4990690;28;20232;-74
2021/07/07 00:32:09;;;;;;;0.30;0.30;;;;;;;16.93;83.51;100365.53;4990681;28;20633;-74
2021/07/07 00:34:35;;;;;;;0.97;0.40;;;;;;;16.90;83.73;100366.22;4991272;28;20541;-74
2021/07/07 00:37:02;;;;;;;0.73;0.73;;;;;;;16.90;84.29;100370.94;4991398;28;20180;-74
2021/07/07 00:39:27;;;;;;;0.50;0.50;;;;;;;16.90;84.26;100376.47;4991122;28;20264;-74
2021/07/07 00:41:52;;;;;;;1.20;0.93;;;;;;;16.94;84.46;100371.88;4990820;28;20268;-74
2021/07/07 00:44:18;;;;;;;0.87;0.50;;;;;;;16.84;84.16;100364.09;4991038;28;20235;-71
2021/07/07 00:46:45;;;;;;;1.30;0.47;;;;;;;16.79;84.89;100367.94;4991496;28;20216;-71
2021/07/07 00:49:13;;;;;;;0.47;0.47;;;;;;;16.89;85.24;100364.63;4990999;28;20215;-71
2021/07/07 00:51:38;;;;;;;0.40;0.40;;;;;;;16.57;86.32;100374.00;4990790;28;20176;-71
2021/07/07 00:54:05;;;;;;;0.40;0.40;;;;;;;16.70;86.34;100383.84;4991092;28;20177;-71
2021/07/07 00:56:34;;;;;;;1.03;0.50;;;;;;;16.72;86.33;100372.47;4990911;28;20181;-72
2021/07/07 00:59:02;;;;;;;1.00;0.50;;;;;;;16.93;86.29;100376.59;4990768;28;20217;-72
2021/07/07 01:01:28;;;;;;;0.80;0.80;;;;;;;16.50;87.59;100371.88;4990650;28;20180;-71
2021/07/07 01:03:54;;;;;;;0.60;0.60;;;;;;;16.75;87.91;100382.78;4990878;28;20192;-72
2021/07/07 01:06:19;;;;;;;0.60;0.30;;;;;;;16.91;87.26;100381.63;4989902;28;20181;-71
2021/07/07 01:08:44;;;;;;;0.43;0.43;;;;;;;16.98;86.91;100386.53;4989488;28;20236;-71
2021/07/07 01:11:10;;;;;;;0.97;0.53;;;;;;;16.75;87.54;100360.72;4990662;28;20248;-72
2021/07/07 01:13:38;;;;;;;0.67;0.60;;;;;;;16.65;88.81;100362.81;4990803;28;20518;-72
2021/07/07 01:16:04;;;;;;;1.77;0.57;;;;;;;16.84;88.68;100366.88;4990737;28;20508;-71
2021/07/07 01:18:29;;;;;;;0.93;0.40;;;;;;;16.86;88.08;100419.75;4990767;28;20200;-72
2021/07/07 01:20:55;;;;;;;2.40;0.50;;;;;;;16.81;88.31;100417.25;4990528;28;20220;-71
2021/07/07 01:23:20;;;;;;;2.33;2.00;;;;;;;16.76;88.80;100410.00;4990636;28;20178;-72
2021/07/07 01:25:46;;;;;;;0.43;0.43;;;;;;;16.76;89.18;100390.69;4990502;28;20211;-72
2021/07/07 01:28:11;;;;;;;1.20;0.30;;;;;;;16.75;88.73;100378.06;4990565;28;20549;-71
2021/07/07 01:30:37;;;;;;;0.40;0.40;;;;;;;16.72;88.70;100369.69;4990506;28;20181;-71
2021/07/07 01:33:02;;;;;;;0.87;0.50;;;;;;;16.54;88.77;100370.00;4990482;28;20173;-71
2021/07/07 01:35:27;;;;;;;0.50;0.50;;;;;;;16.34;89.69;100376.53;4990626;28;20676;-74
2021/07/07 01:37:54;;;;;;;0.63;0.37;;;;;;;16.27;91.06;100366.13;4989147;28;20180;-74
2021/07/07 01:40:22;;;;;;;0.50;0.50;;;;;;;16.25;91.28;100362.13;4990625;28;20265;-72
2021/07/07 01:42:48;;;;;;;1.80;0.50;;;;;;;16.17;91.59;100355.59;4990469;28;20173;-72
2021/07/07 01:45:14;;;;;;;0.40;0.40;;;;;;;16.11;92.00;100362.50;4992926;28;20208;-72
2021/07/07 01:47:40;;;;;;;0.47;0.47;;;;;;;16.02;92.41;100351.63;4994212;28;20205;-74
2021/07/07 01:50:08;;;;;;;0.37;0.37;;;;;;;15.98;93.67;100347.97;4992928;28;20235;-74
2021/07/07 01:52:33;;;;;;;0.40;0.40;;;;;;;15.93;94.11;100342.72;4993659;28;20479;-74
2021/07/07 01:55:00;;;;;;;1.57;0.50;;;;;;;15.89;94.29;100343.75;4994349;28;20327;-74
2021/07/07 01:57:26;;;;;;;13.23;0.90;;;;;;;15.88;94.43;100345.69;4992881;28;20629;-74
2021/07/07 01:59:51;;;;;;;0.70;0.50;;;;;;;15.89;94.50;100344.53;4994125;28;20181;-74
2021/07/07 02:02:16;;;;;;;0.53;0.47;;;;;;;15.92;94.77;100346.63;4993738;28;20244;-72
2021/07/07 02:04:42;;;;;;;0.97;0.53;;;;;;;15.97;95.21;100334.53;4993995;28;20204;-71
2021/07/07 02:07:07;;;;;;;0.87;0.50;;;;;;;16.03;95.31;100322.91;4993737;28;20177;-71
2021/07/07 02:09:32;;;;;;;0.60;0.50;;;;;;;16.13;95.54;100331.84;4993997;28;20208;-72
2021/07/07 02:11:58;;;;;;;0.53;0.40;;;;;;;16.12;94.04;100330.22;4993540;28;20181;-72
2021/07/07 02:14:23;;;;;;;0.57;0.57;;;;;;;16.02;93.78;100339.78;4993958;28;20177;-71
2021/07/07 02:16:48;;;;;;;0.93;0.93;;;;;;;15.85;94.49;100335.38;4993853;28;20236;-71
2021/07/07 02:19:14;;;;;;;0.80;0.50;;;;;;;15.88;95.05;100336.63;4993723;28;20529;-74
2021/07/07 02:21:40;;;;;;;0.80;0.47;;;;;;;15.81;94.59;100342.75;4993230;28;20238;-74
2021/07/07 02:24:06;;;;;;;1.27;0.60;;;;;;;15.72;95.10;100342.06;4993523;28;20196;-74
2021/07/07 02:26:32;;;;;;;0.70;0.57;;;;;;;15.69;95.19;100331.75;4993827;28;20178;-74
2021/07/07 02:28:57;;;;;;;2.80;0.77;;;;;;;15.69;95.62;100329.00;4993536;28;20204;-74
2021/07/07 02:31:22;;;;;;;0.97;0.47;;;;;;;15.58;95.76;100353.44;4992973;28;20177;-74
2021/07/07 02:33:47;;;;;;;0.30;0.30;;;;;;;15.47;96.25;100350.34;4992028;28;20180;-74
2021/07/07 02:36:13;;;;;;;0.50;0.50;;;;;;;15.39;96.52;100345.00;4993570;28;20209;-74
2021/07/07 02:38:38;;;;;;;1.93;0.63;;;;;;;15.26;96.71;100349.69;4993377;28;20627;-74
2021/07/07 02:41:04;;;;;;;0.50;0.50;;;;;;;15.17;96.89;100354.50;4993056;28;20177;-74
2021/07/07 02:43:30;;;;;;;0.70;0.70;;;;;;;15.09;97.58;100377.44;4993266;28;20664;-72
2021/07/07 02:45:55;;;;;;;0.30;0.30;;;;;;;15.06;98.13;100369.88;4993268;28;20180;-74
2021/07/07 02:48:21;;;;;;;0.97;0.73;;;;;;;15.02;98.25;100366.19;4992984;28;20197;-74
2021/07/07 02:50:46;;;;;;;4.23;0.63;;;;;;;14.96;97.96;100373.09;4992835;28;20169;-75
2021/07/07 02:53:13;;;;;;;0.70;0.70;;;;;;;14.89;97.96;100390.94;4993129;28;20257;-74
2021/07/07 02:55:39;;;;;;;0.73;0.73;;;;;;;14.86;98.06;100379.81;4992847;28;20591;-74
2021/07/07 02:58:05;;;;;;;0.40;0.40;;;;;;;14.85;98.25;100356.22;5002124;28;20176;-74
2021/07/07 03:00:30;;;;;;;0.50;0.50;;;;;;;14.90;98.03;100356.00;5012854;28;20179;-74
2021/07/07 03:03:11;;;;;;;1.73;1.27;;;;;;;14.84;98.16;100368.38;5012840;28;20260;-74
2021/07/07 03:05:42;;;;;;;0.40;0.40;;;;;;;14.80;98.87;100373.75;5013000;28;20160;-73
2021/07/07 03:08:09;;;;;;;0.53;0.53;;;;;;;14.80;99.05;100383.94;5011628;28;20204;-74
2021/07/07 03:10:35;;;;;;;1.13;0.80;;;;;;;14.78;98.89;100383.50;5013127;28;20180;-73
2021/07/07 03:13:01;;;;;;;2.70;0.60;;;;;;;14.82;98.33;100381.66;5012696;28;20310;-74
2021/07/07 03:15:26;;;;;;;0.73;0.70;;;;;;;14.86;98.10;100377.88;5013096;28;20179;-73
2021/07/07 03:17:54;;;;;;;0.67;0.50;;;;;;;14.94;98.07;100369.88;5012954;28;20214;-74
2021/07/07 03:20:20;;;;;;;1.73;0.77;;;;;;;15.01;97.62;100356.34;5012648;28;20173;-74
2021/07/07 03:22:45;;;;;;;0.57;0.53;;;;;;;15.10;97.42;100343.28;5012849;28;20562;-74
2021/07/07 03:25:11;;;;;;;0.80;0.80;;;;;;;15.17;97.24;100352.56;5012489;28;20195;-74
2021/07/07 03:27:36;;;;;;;0.57;0.57;;;;;;;15.23;97.29;100353.16;5012639;28;20173;-74
2021/07/07 03:30:05;;;;;;;1.13;1.13;;;;;;;15.29;96.91;100362.75;5012343;28;20205;-74
2021/07/07 03:32:30;;;;;;;0.50;0.50;;;;;;;15.24;96.67;100368.50;4993960;28;20533;-73
2021/07/07 03:34:56;;;;;;;1.07;0.50;;;;;;;15.19;96.32;100379.75;4992819;28;20173;-73
2021/07/07 03:37:21;;;;;;;0.60;0.40;;;;;;;15.13;96.84;100375.63;4992552;28;20255;-73
2021/07/07 03:39:46;;;;;;;0.60;0.60;;;;;;;15.14;97.15;100396.47;4992414;28;20676;-74
2021/07/07 03:42:12;;;;;;;0.60;0.60;;;;;;;15.20;96.17;100397.06;4991851;28;20204;-74
2021/07/07 03:44:37;;;;;;;0.50;0.50;;;;;;;15.25;95.99;100394.88;4992204;28;20205;-74
2021/07/07 03:47:03;;;;;;;1.10;0.50;;;;;;;15.30;95.25;100402.91;4991092;28;20188;-74
2021/07/07 03:49:28;;;;;;;0.70;0.70;;;;;;;15.35;95.59;100405.44;4992489;28;20207;-74
2021/07/07 03:51:54;;;;;;;0.60;0.60;;;;;;;15.38;94.92;100404.75;4992110;28;20173;-74
2021/07/07 03:54:23;;;;;;;6.03;0.43;;;;;;;15.45;93.70;100415.97;4992343;28;20276;-74
2021/07/07 03:56:48;;;;;;;0.70;0.70;;;;;;;15.54;92.26;100410.38;4991886;28;20177;-74
2021/07/07 03:59:14;;;;;;;0.50;0.50;;;;;;;15.67;90.82;100412.00;4992003;28;20184;-74
2021/07/07 04:01:39;;;;;;;0.93;0.50;;;;;;;15.72;90.58;100409.00;4991459;28;20603;-74
2021/07/07 04:04:04;;;;;;;0.40;0.40;;;;;;;15.75;90.61;100405.53;4992075;28;20563;-74
2021/07/07 04:06:29;;;;;;;0.50;0.50;;;;;;;15.75;91.41;100404.72;4991886;28;20179;-74
2021/07/07 04:08:55;;;;;;;0.60;0.60;;;;;;;15.75;90.69;100418.50;4991388;28;20258;-74
2021/07/07 04:11:20;;;;;;;0.50;0.50;;;;;;;15.80;89.94;100412.78;4991342;28;20177;-73
2021/07/07 04:13:45;;;;;;;0.60;0.60;;;;;;;15.84;89.92;100424.69;4991832;28;20640;-74
2021/07/07 04:16:11;;;;;;;1.03;0.60;;;;;;;15.85;89.11;100423.56;4991523;28;20659;-74
2021/07/07 04:18:36;;;;;;;0.60;0.50;;;;;;;15.93;89.32;100417.13;4991627;28;20260;-74
2021/07/07 04:21:01;;;;;;;0.63;0.50;;;;;;;15.97;89.16;100419.97;4991007;28;20205;-74
2021/07/07 04:23:27;;;;;;;0.43;0.43;;;;;;;15.93;88.76;100410.81;4991290;28;20272;-74
2021/07/07 04:25:52;;;;;;;0.43;0.43;;;;;;;15.81;90.57;100411.63;4991223;28;20196;-74
2021/07/07 04:28:17;;;;;;;1.20;0.70;;;;;;;15.67;92.44;100428.50;4991303;28;20688;-74
2021/07/07 04:30:42;;;;;;;1.40;0.70;;;;;;;15.55;93.61;100438.69;4991016;28;20181;-74
2021/07/07 04:33:08;;;;;;;0.50;0.50;;;;;;;15.67;94.43;100483.59;4991044;28;20205;-74
2021/07/07 04:35:33;;;;;;;0.53;0.50;;;;;;;15.62;94.48;100481.09;4991362;28;20213;-72
2021/07/07 04:37:59;;;;;;;0.77;0.60;;;;;;;15.77;93.78;100479.59;4991604;28;20184;-72
2021/07/07 04:40:25;;;;;;;0.40;0.40;;;;;;;16.01;92.94;100462.22;4991503;28;20592;-72
2021/07/07 04:42:51;;;;;;;0.50;0.50;;;;;;;16.11;91.92;100461.75;4990958;28;20181;-72
2021/07/07 04:45:18;;;;;;;1.00;1.00;;;;;;;16.15;91.44;100459.88;4991220;28;20169;-72
2021/07/07 04:47:44;;;;;;;0.50;0.50;;;;;;;16.19;90.86;100451.72;4991142;28;20170;-71
2021/07/07 04:50:15;;;;;;;0.97;0.60;;;;;;;16.21;90.29;100450.22;4991100;28;20209;-71
2021/07/07 04:52:41;;;;;;;0.50;0.50;;;;;;;16.15;89.57;100450.81;4990557;28;20185;-74
2021/07/07 04:55:08;;;;;;;0.40;0.40;;;;;;;16.11;89.85;100445.19;4991010;28;20173;-74
2021/07/07 04:57:41;;;;;;;0.73;0.50;;;;;;;16.06;90.38;100454.53;4991013;28;20273;-74
2021/07/07 05:00:10;;;;;;;0.33;0.33;;;;;;;16.02;90.79;100447.28;4990880;28;20347;-74
2021/07/07 05:02:35;;;;;;;0.50;0.50;;;;;;;16.03;90.55;100454.41;4990666;28;20208;-74
2021/07/07 05:05:01;;;;;;;1.00;0.50;;;;;;;16.02;90.54;100450.84;4990828;28;20606;-74
2021/07/07 05:07:26;;;;;;;0.50;0.50;;;;;;;16.02;91.00;100448.09;4991153;28;20181;-74
2021/07/07 05:09:51;;;;;;;0.57;0.40;;;;;;;16.03;90.66;100455.19;4991014;28;20563;-73
2021/07/07 05:12:17;;;;;;;1.17;0.60;;;;;;;16.03;91.46;100449.69;4990747;28;20651;-74
2021/07/07 05:14:42;;;;;;;0.47;0.37;;;;;;;16.01;91.03;100449.22;4990846;28;20531;-74
2021/07/07 05:17:08;;;;;;;0.73;0.50;;;;;;;16.04;90.44;100445.78;4990713;28;20276;-74
2021/07/07 05:19:33;;;;;;;0.40;0.40;;;;;;;16.08;90.45;100451.41;4993655;28;20242;-74
2021/07/07 05:21:58;;;;;;;1.27;0.70;;;;;;;16.11;90.57;100456.22;4994349;28;20184;-74
2021/07/07 05:24:24;;;;;;;0.53;0.50;;;;;;;16.15;90.65;100457.13;4994741;28;20250;-73
2021/07/07 05:26:49;;;;;;;1.03;0.40;;;;;;;16.18;89.92;100458.38;4994765;28;20307;-74
2021/07/07 05:29:16;;;;;;;0.60;0.60;;;;;;;16.23;90.19;100458.94;4994729;28;20241;-74
2021/07/07 05:31:42;;;;;;;0.53;0.50;;;;;;;16.26;90.15;100469.28;4994366;28;20173;-74
2021/07/07 05:34:07;;;;;;;0.57;0.40;;;;;;;16.27;90.42;100468.13;4994411;28;20206;-74
2021/07/07 05:36:32;;;;;;;0.67;0.60;;;;;;;16.27;91.01;100467.31;4994565;28;20216;-74
2021/07/07 05:38:58;;;;;;;0.97;0.97;;;;;;;16.28;91.26;100468.94;4994459;28;20223;-74
2021/07/07 05:41:23;;;;;;;0.40;0.40;;;;;;;16.31;90.54;100470.97;4993973;28;20185;-73
2021/07/07 05:43:53;;;;;;;0.77;0.60;;;;;;;16.32;89.91;100472.59;4994429;28;20214;-73
2021/07/07 05:46:18;;;;;;;0.73;0.40;;;;;;;16.36;90.21;100473.50;5000939;28;20184;-73
2021/07/07 05:48:43;;;;;;;0.67;0.43;;;;;;;16.40;90.26;100466.13;5014057;28;20220;-71
2021/07/07 05:51:09;;;;;;;1.63;0.70;;;;;;;16.43;90.47;100476.47;5014141;28;20183;-71
2021/07/07 05:53:34;;;;;;;0.67;0.47;;;;;;;16.45;91.30;100479.66;5014218;28;20187;-71
2021/07/07 05:55:59;;;;;;;0.60;0.40;;;;;;;16.55;91.51;100483.91;5014598;28;20190;-71
2021/07/07 05:58:25;;;;;;;2.03;0.53;;;;;;;16.61;91.96;100485.25;5014268;28;20176;-73
2021/07/07 06:00:50;;;;;;;1.17;0.50;;;;;;;16.70;91.73;100499.72;5014185;28;20177;-74
2021/07/07 06:03:15;;;;;;;0.50;0.50;;;;;;;16.80;91.69;100495.69;5014248;28;20187;-74
2021/07/07 06:05:41;;;;;;;0.40;0.40;;;;;;;16.86;91.05;100508.06;5001009;28;20191;-74
2021/07/07 06:08:06;;;;;;;0.53;0.50;;;;;;;16.97;90.94;100500.06;4994475;28;20573;-79
2021/07/07 06:10:32;;;;;;;1.80;0.60;;;;;;;17.04;91.07;100491.97;4999567;28;20285;-73
2021/07/07 06:12:57;;;;;;;0.57;0.57;;;;;;;17.10;89.19;100487.81;5003162;28;20179;-73
2021/07/07 06:15:23;;;;;;;0.50;0.50;;;;;;;17.11;88.87;100497.69;5003328;28;20173;-74
2021/07/07 06:17:49;;;;;;;0.87;0.70;;;;;;;17.16;88.39;100494.66;5001951;28;20181;-73
2021/07/07 06:20:16;;;;;;;1.57;0.60;;;;;;;17.25;88.58;100509.13;4994227;28;20239;-73
2021/07/07 06:22:42;;;;;;;1.50;0.50;;;;;;;17.36;88.53;100512.13;4993940;28;20228;-72
2021/07/07 06:25:09;;;;;;;0.40;0.40;;;;;;;17.42;87.55;100514.28;4994131;28;20216;-71
2021/07/07 06:27:37;;;;;;;0.93;0.40;;;;;;;17.48;87.05;100523.09;4994162;28;20256;-72
2021/07/07 06:30:05;;;;;;;0.97;0.50;;;;;;;17.55;87.58;100521.34;4993143;28;20256;-71
2021/07/07 06:32:30;;;;;;;1.23;0.50;;;;;;;17.60;88.43;100522.22;4993916;28;20216;-73
2021/07/07 06:35:01;;;;;;;0.50;0.50;;;;;;;17.70;87.86;100518.97;4994066;28;20177;-72
2021/07/07 06:37:27;;;;;;;1.80;0.50;;;;;;;17.66;87.66;100515.28;4994261;28;20162;-73
2021/07/07 06:39:52;;;;;;;0.63;0.60;;;;;;;17.71;87.95;100515.84;4993953;28;20177;-72
2021/07/07 06:42:17;;;;;;;0.50;0.40;;;;;;;17.84;88.24;100519.31;4994000;28;20215;-73
2021/07/07 06:44:43;;;;;;;0.47;0.47;;;;;;;17.97;87.58;100529.09;4993794;28;20201;-72
2021/07/07 06:47:08;;;;;;;0.57;0.57;;;;;;;17.92;88.20;100531.31;4993891;28;20192;-73
2021/07/07 06:49:33;;;;;;;0.50;0.40;;;;;;;18.03;86.92;100533.19;4993574;28;20514;-72
2021/07/07 06:51:59;;;;;;;0.73;0.60;;;;;;;18.17;85.64;100529.94;4993602;28;20189;-72
2021/07/07 06:54:24;;;;;;;0.60;0.60;;;;;;;18.26;85.89;100524.22;4993610;28;20173;-72
2021/07/07 06:56:49;;;;;;;0.87;0.70;;;;;;;18.43;85.86;100516.31;4993589;28;20189;-73
2021/07/07 06:59:15;;;;;;;1.63;0.87;;;;;;;18.51;84.27;100517.25;4992558;28;20208;-72
2021/07/07 07:01:40;;;;;;;0.87;0.50;;;;;;;18.69;83.55;100528.72;4993243;28;20184;-73
2021/07/07 07:04:05;;;;;;;1.07;0.90;;;;;;;18.81;82.98;100544.41;5008550;28;20192;-73
2021/07/07 07:06:31;;;;;;;0.70;0.60;;;;;;;18.91;82.69;100546.56;5012881;28;20207;-72
2021/07/07 07:08:56;;;;;;;0.50;0.50;;;;;;;18.86;81.27;100555.97;5013190;28;20192;-72
2021/07/07 07:11:21;;;;;;;0.40;0.40;;;;;;;18.78;81.45;100545.91;5012663;28;20247;-72
2021/07/07 07:13:47;;;;;;;0.50;0.50;;;;;;;18.63;81.85;100546.75;5012907;28;20172;-72
2021/07/07 07:16:13;;;;;;;0.60;0.60;;;;;;;18.70;81.37;100555.25;5012753;28;20176;-72
2021/07/07 07:18:39;;;;;;;0.90;0.67;;;;;;;18.75;80.77;100554.16;5010602;28;20215;-72
2021/07/07 07:21:04;;;;;;;0.63;0.40;;;;;;;18.75;81.35;100557.72;5006730;28;20181;-73
2021/07/07 07:23:30;;;;;;;1.33;1.10;;;;;;;18.82;81.33;100551.53;5008380;28;20185;-72
2021/07/07 07:25:55;;;;;;;0.77;0.50;;;;;;;18.80;82.28;100557.41;5012312;28;20503;-72
2021/07/07 07:28:21;;;;;;;0.50;0.50;;;;;;;18.88;82.25;100564.72;5012497;28;20196;-73
2021/07/07 07:30:46;;;;;;;1.67;0.70;;;;;;;19.07;80.89;100558.34;5012050;28;20168;-72
2021/07/07 07:33:12;;;;;;;0.97;0.50;;;;;;;19.21;81.10;100563.38;5012468;28;20192;-72
2021/07/07 07:35:37;;;;;;;1.43;0.70;;;;;;;19.38;81.74;100562.09;5012476;28;20692;-72
2021/07/07 07:38:05;;;;;;;0.53;0.47;;;;;;;19.35;81.80;100563.63;5012366;28;20176;-72
2021/07/07 07:40:42;;;;;;;0.47;0.30;;;;;;;19.47;80.57;100570.97;5012441;28;20169;-72
2021/07/07 07:43:10;;;;;;;1.30;0.60;;;;;;;19.38;81.51;100568.44;5000363;28;20479;-72
2021/07/07 07:45:39;;;;;;;0.67;0.50;;;;;;;19.42;80.87;100557.44;4992739;28;20704;-72
2021/07/07 07:48:05;;;;;;;1.27;0.87;;;;;;;19.44;81.25;100569.75;4992539;28;20273;-73
2021/07/07 07:50:32;;;;;;;0.77;0.77;;;;;;;19.50;79.80;100573.81;4992429;28;20204;-72
2021/07/07 07:52:58;;;;;;;1.10;0.70;;;;;;;19.70;78.91;100571.03;4992423;28;20260;-72
2021/07/07 07:55:25;;;;;;;0.67;0.67;;;;;;;19.86;79.73;100577.25;4995761;28;20613;-72
2021/07/07 07:57:50;;;;;;;1.40;0.80;;;;;;;19.93;79.96;100574.56;4992679;28;20178;-73
2021/07/07 08:00:26;;;;;;;1.07;0.90;;;;;;;19.69;79.43;100569.44;4992409;28;20184;-73
2021/07/07 08:03:13;;;;;;;0.83;0.83;;;;;;;19.90;79.96;100625.22;5087648;27;20675;-72
2021/07/07 08:05:40;;;;;;;0.57;0.43;;;;;;;20.06;79.42;100644.53;5087932;28;20653;-72
2021/07/07 08:08:06;;;;;;;1.33;0.73;;;;;;;20.03;78.11;100636.94;5088071;28;20170;-72
2021/07/07 08:10:32;;;;;;;0.90;0.90;;;;;;;20.13;77.37;100598.28;5086744;28;20174;-72
2021/07/07 08:12:57;;;;;;;0.50;0.50;;;;;;;19.99;78.14;100581.41;5087898;28;20174;-71
2021/07/07 08:15:25;;;;;;;0.90;0.70;;;;;;;19.86;78.94;100589.13;5087755;28;20178;-72
2021/07/07 08:17:51;;;;;;;0.50;0.50;;;;;;;19.99;78.73;100586.97;5087851;28;20169;-72
2021/07/07 08:20:17;;;;;;;0.87;0.70;;;;;;;19.88;78.08;100583.22;5087791;28;20178;-72
2021/07/07 08:22:43;;;;;;;1.00;0.70;;;;;;;19.96;79.57;100553.59;5086038;28;20205;-72
2021/07/07 08:25:10;;;;;;;0.83;0.70;;;;;;;20.03;78.45;100609.22;5087547;28;20170;-71
2021/07/07 08:27:35;;;;;;;1.20;0.90;;;;;;;19.85;78.61;100631.91;5087624;28;20200;-71
2021/07/07 08:30:02;;;;;;;1.60;1.47;;;;;;;19.94;77.75;100661.34;5087398;28;20203;-71
2021/07/07 08:32:27;;;;;;;2.10;0.83;;;;;;;19.99;78.36;100636.09;5087315;28;20433;-72
2021/07/07 08:34:52;;;;;;;2.63;0.80;;;;;;;19.96;77.67;100628.50;5087590;28;20645;-72
2021/07/07 08:37:18;;;;;;;0.63;0.63;;;;;;;20.00;77.46;100621.06;5087484;28;20174;-72
2021/07/07 08:39:43;;;;;;;0.70;0.70;;;;;;;20.04;78.40;100625.47;5087457;28;20249;-71
2021/07/07 08:42:09;;;;;;;4.00;0.60;;;;;;;20.21;78.98;100682.44;5086634;28;20198;-71
2021/07/07 08:44:34;;;;;;;0.77;0.73;;;;;;;20.37;75.30;100648.97;5086935;28;20166;-71
2021/07/07 08:47:00;;;;;;;0.60;0.60;;;;;;;20.60;74.76;100644.22;5087112;28;20955;-72
2021/07/07 08:49:25;;;;;;;1.07;0.67;;;;;;;20.77;72.35;100649.22;5087044;28;20624;-71
2021/07/07 08:51:51;;;;;;;0.70;0.70;;;;;;;20.96;73.32;100712.19;5086651;28;20200;-71
2021/07/07 08:54:18;;;;;;;1.73;0.63;;;;;;;21.10;69.74;100673.47;5086707;28;20649;-72
2021/07/07 08:56:44;;;;;;;0.70;0.70;;;;;;;21.12;70.28;100663.97;5086639;28;20166;-71
2021/07/07 08:59:12;;;;;;;2.23;0.70;;;;;;;21.27;75.69;100655.47;5087167;28;20174;-71
2021/07/07 09:02:09;;;;;;;1.67;0.80;;;;;;;21.27;70.12;100649.13;5086408;28;20565;-71
2021/07/07 09:04:36;;;;;;;1.53;0.80;;;;;;;21.39;69.56;100648.84;5086488;28;20174;-71
2021/07/07 09:07:07;;;;;;;0.97;0.70;;;;;;;21.44;72.13;100648.53;5086475;28;20636;-71
2021/07/07 09:09:44;;;;;;;0.77;0.77;;;;;;;21.58;72.60;100662.59;5085371;28;20529;-72
2021/07/07 09:12:17;;;;;;;0.50;0.50;;;;;;;21.71;69.43;100665.91;5085398;28;20184;-71
2021/07/07 09:14:48;;;;;;;1.23;0.80;;;;;;;21.76;67.96;100668.31;5072991;28;20167;-72
2021/07/07 09:17:17;;;;;;;0.73;0.73;;;;;;;21.81;67.59;100659.63;5074293;28;20187;-72
2021/07/07 09:19:43;;;;;;;1.73;0.93;;;;;;;21.49;67.88;100661.28;5074080;28;20210;-72
2021/07/07 09:22:11;;;;;;;0.90;0.70;;;;;;;21.47;67.67;100663.63;5072509;28;20202;-71
2021/07/07 09:24:39;;;;;;;0.90;0.80;;;;;;;21.73;69.26;100660.75;5073218;28;20175;-71
2021/07/07 09:27:05;;;;;;;1.30;0.67;;;;;;;21.90;69.48;100662.91;5079189;28;20176;-72
2021/07/07 09:29:43;;;;;;;0.47;0.47;;;;;;;22.08;69.21;100665.88;5074957;28;20320;-71
2021/07/07 09:32:29;;;;;;;0.90;0.67;;;;;;;21.91;64.83;100661.72;5072635;28;20262;-72
2021/07/07 09:35:00;;;;;;;0.70;0.70;;;;;;;22.07;67.66;100660.69;5072551;28;20175;-72
2021/07/07 09:37:37;;;;;;;2.57;0.90;;;;;;;21.96;66.33;100652.22;5072743;28;20168;-72
2021/07/07 09:40:05;;;;;;;1.80;0.80;;;;;;;21.95;67.03;100654.19;5072865;28;20171;-71
2021/07/07 09:42:34;;;;;;;0.93;0.63;;;;;;;21.77;64.67;100644.88;5072162;28;20734;-72
2021/07/07 09:45:01;;;;;;;1.37;0.77;;;;;;;21.82;64.79;100643.72;5072484;28;20174;-71
2021/07/07 09:47:27;;;;;;;1.40;0.70;;;;;;;21.57;63.05;100641.53;5072307;28;20168;-71
2021/07/07 09:49:52;;;;;;;1.63;0.90;;;;;;;21.74;64.46;100634.53;5072375;28;20195;-71
2021/07/07 09:52:22;;;;;;;1.43;0.70;;;;;;;21.87;64.41;100632.28;5071977;28;20167;-71
2021/07/07 09:54:48;;;;;;;1.13;0.90;;;;;;;22.13;65.45;100634.91;5072686;28;20166;-72
2021/07/07 09:57:15;;;;;;;1.20;0.83;;;;;;;22.18;64.23;100709.72;5070953;28;20755;-71
2021/07/07 09:59:41;;;;;;;1.37;1.27;;;;;;;22.40;59.62;100521.34;5072164;28;20175;-71
2021/07/07 10:02:06;;;;;;;0.73;0.73;;;;;;;22.67;55.85;100527.44;5071731;28;20822;-71
2021/07/07 10:04:33;;;;;;;0.37;0.37;;;;;;;22.89;54.87;100520.00;5072165;28;20188;-71
2021/07/07 10:07:00;;;;;;;0.80;0.50;;;;;;;23.07;56.95;100518.06;5071851;28;20176;-72
2021/07/07 10:09:26;;;;;;;0.50;0.50;;;;;;;23.25;53.44;100525.66;5072038;28;20672;-71
2021/07/07 10:11:54;;;;;;;0.70;0.70;;;;;;;22.74;53.10;100526.69;5071680;28;20183;-71
2021/07/07 10:14:21;;;;;;;0.60;0.60;;;;;;;22.56;57.49;100526.59;5072057;28;20643;-71
2021/07/07 10:16:48;;;;;;;1.20;0.80;;;;;;;22.82;58.34;100529.13;5071809;28;20171;-71
2021/07/07 10:19:15;;;;;;;1.30;0.60;;;;;;;23.17;55.95;100524.06;5071880;28;20174;-71
2021/07/07 10:21:41;;;;;;;1.07;0.70;;;;;;;23.37;56.50;100528.06;5071217;28;20237;-71
2021/07/07 10:24:08;;;;;;;1.00;0.63;;;;;;;23.62;57.14;100522.56;5071241;28;20630;-71
2021/07/07 10:26:36;;;;;;;0.87;0.87;;;;;;;23.81;59.07;100516.56;5071447;28;20195;-71
2021/07/07 10:29:02;;;;;;;1.47;0.97;;;;;;;23.87;56.66;100528.94;5071673;28;20180;-71
2021/07/07 10:31:44;;;;;;;0.93;0.63;;;;;;;23.88;51.16;100524.94;5070933;28;20656;-71
2021/07/07 10:34:10;;;;;;;1.43;0.97;;;;;;;23.40;51.00;100525.28;5071569;28;20619;-71
2021/07/07 10:36:39;;;;;;;1.43;0.70;;;;;;;23.22;51.27;100524.47;5071547;28;20289;-71
2021/07/07 10:39:08;;;;;;;0.70;0.50;;;;;;;23.26;53.44;100527.25;5071424;28;20175;-71
2021/07/07 10:41:43;;;;;;;1.77;1.17;;;;;;;23.10;53.54;100528.41;5070913;28;20253;-72
2021/07/07 10:44:24;;;;;;;0.83;0.60;;;;;;;23.19;54.00;100524.47;5071100;28;20186;-71
2021/07/07 10:46:50;;;;;;;0.73;0.60;;;;;;;23.43;52.78;100518.94;5071230;28;20170;-71
2021/07/07 10:49:20;;;;;;;1.60;0.80;;;;;;;23.60;52.25;100517.38;5071145;28;20178;-71
2021/07/07 10:51:47;;;;;;;1.20;0.53;;;;;;;23.77;51.82;100520.56;5070888;28;20183;-71
2021/07/07 10:54:32;;;;;;;0.97;0.47;;;;;;;23.77;48.59;100528.94;5070899;28;20234;-71
2021/07/07 10:56:59;;;;;;;0.30;0.30;;;;;;;23.65;46.90;100516.97;5071387;28;20174;-71
2021/07/07 10:59:34;;;;;;;1.13;0.60;;;;;;;23.58;52.35;100528.13;5071117;28;20166;-71
2021/07/07 11:02:08;;;;;;;1.87;0.60;;;;;;;23.94;51.47;100530.91;5070772;28;20218;-71
2021/07/07 11:04:40;;;;;;;1.13;0.70;;;;;;;24.15;50.95;100532.84;5071233;28;20224;-71
2021/07/07 11:07:33;;;;;;;1.77;0.80;;;;;;;24.13;51.71;100530.47;5070819;28;20684;-71
2021/07/07 11:10:17;;;;;;;3.13;1.17;;;;;;;24.22;51.63;100532.84;5070785;28;20272;-71
2021/07/07 11:12:42;;;;;;;1.60;0.63;;;;;;;24.29;49.55;100533.66;5070503;28;20179;-71
2021/07/07 11:15:16;;;;;;;1.13;1.03;;;;;;;24.13;48.35;100527.69;5070739;28;20240;-72
2021/07/07 11:17:52;;;;;;;1.33;0.67;;;;;;;24.21;47.75;100531.28;5070604;28;20538;-71
2021/07/07 11:20:31;;;;;;;5.07;0.90;;;;;;;24.24;48.23;100531.25;5065436;28;20212;-71
2021/07/07 11:23:11;;;;;;;3.47;1.13;;;;;;;24.31;49.59;100538.88;5063699;28;20530;-72